Time;durP1;ratioP1;P1;durP2;ratioP2;P2;SDS_P1;SDS_P2;PMS_P1;PMS_P2;Temp;Humidity;BMP_temperature;BMP_pressure;BME280_temperature;BME280_humidity;BME280_pressure;Samples;Min_cycle;Max_cycle;Signal;HPM_P1;HPM_P2
2022/10/19 00:02:12;;;;;;;9.73;8.20;;;;;;;;;;4989401;28;20180;-82
2022/10/19 00:04:38;;;;;;;8.97;8.07;;;;;;;;;;4993560;28;20230;-83
2022/10/19 00:07:03;;;;;;;13.33;8.77;;;;;;;;;;4993071;28;20191;-83
2022/10/19 00:09:28;;;;;;;10.67;8.43;;;;;;;;;;4987380;28;20446;-83
2022/10/19 00:11:53;;;;;;;10.10;8.20;;;;;;;;;;4984188;28;20274;-82
2022/10/19 00:14:20;;;;;;;8.77;7.10;;;;;;;;;;4994337;28;20198;-83
2022/10/19 00:16:47;;;;;;;8.20;7.47;;;;;;;;;;4985545;28;20294;-83
2022/10/19 00:19:14;;;;;;;8.03;7.23;;;;;;;;;;5003419;28;20230;-83
2022/10/19 00:21:39;;;;;;;10.23;7.73;;;;;;;;;;4988085;28;20270;-81
2022/10/19 00:24:05;;;;;;;8.70;7.83;;;;;;;;;;4991305;28;20273;-83
2022/10/19 00:26:31;;;;;;;8.87;7.67;;;;;;;;;;4984784;28;20256;-82
2022/10/19 00:28:56;;;;;;;9.17;7.17;;;;;;;;;;4988797;28;20178;-83
2022/10/19 00:31:21;;;;;;;8.50;7.63;;;;;;;;;;4988058;28;20201;-82
2022/10/19 00:33:47;;;;;;;10.40;8.43;;;;;;;;;;4983444;28;20181;-83
2022/10/19 00:36:15;;;;;;;9.47;8.27;;;;;;;;;;4990790;28;20239;-82
2022/10/19 00:38:41;;;;;;;10.20;8.23;;;;;;;;;;4989998;28;20185;-83
2022/10/19 00:41:07;;;;;;;9.57;8.57;;;;;;;;;;4988899;28;20180;-82
2022/10/19 00:43:49;;;;;;;9.23;8.30;;;;;;;;;;4996874;28;20177;-83
2022/10/19 00:46:14;;;;;;;9.67;8.70;;;;;;;;;;4988013;28;20276;-83
2022/10/19 00:48:39;;;;;;;11.20;9.30;;;;;;;;;;4992629;28;20200;-83
2022/10/19 00:51:05;;;;;;;10.23;8.60;;;;;;;;;;4992351;28;20181;-82
2022/10/19 00:53:30;;;;;;;11.00;8.60;;;;;;;;;;4994742;28;20180;-82
2022/10/19 00:55:56;;;;;;;10.33;8.83;;;;;;;;;;4994123;28;20196;-83
2022/10/19 00:58:21;;;;;;;8.43;7.53;;;;;;;;;;4992372;28;20181;-82
2022/10/19 01:00:46;;;;;;;10.70;8.93;;;;;;;;;;4991367;28;20181;-83
2022/10/19 01:03:12;;;;;;;9.63;8.63;;;;;;;;;;4993424;28;20184;-83
2022/10/19 01:05:38;;;;;;;9.17;8.27;;;;;;;;;;4996903;28;20188;-82
2022/10/19 01:08:03;;;;;;;9.20;8.00;;;;;;;;;;4995336;28;20198;-81
2022/10/19 01:10:36;;;;;;;9.60;7.57;;;;;;;;;;4997386;28;20211;-83
2022/10/19 01:13:07;;;;;;;9.47;8.47;;;;;;;;;;4993057;28;20179;-82
2022/10/19 01:15:33;;;;;;;7.63;6.87;;;;;;;;;;4999321;28;20238;-83
2022/10/19 01:17:58;;;;;;;11.20;7.70;;;;;;;;;;4992087;28;20179;-82
2022/10/19 01:20:29;;;;;;;9.90;8.57;;;;;;;;;;4989979;28;20218;-83
2022/10/19 01:23:13;;;;;;;11.40;8.67;;;;;;;;;;4997319;28;20244;-83
2022/10/19 01:25:51;;;;;;;9.83;8.83;;;;;;;;;;4997467;28;20178;-83
2022/10/19 01:28:37;;;;;;;9.40;8.27;;;;;;;;;;4995260;28;20278;-82
2022/10/19 01:31:26;;;;;;;9.93;8.37;;;;;;;;;;5008043;28;20181;-82
2022/10/19 01:34:07;;;;;;;10.30;8.87;;;;;;;;;;4990425;28;20185;-80
2022/10/19 01:36:51;;;;;;;11.63;9.03;;;;;;;;;;4988785;28;20300;-83
2022/10/19 01:39:29;;;;;;;10.63;9.40;;;;;;;;;;5009821;28;20223;-82
2022/10/19 01:42:12;;;;;;;11.20;9.40;;;;;;;;;;4993967;28;20192;-82
2022/10/19 01:44:38;;;;;;;9.83;8.70;;;;;;;;;;4999123;28;20451;-82
2022/10/19 01:47:05;;;;;;;12.40;9.30;;;;;;;;;;4990800;28;20181;-83
2022/10/19 01:49:39;;;;;;;10.03;9.03;;;;;;;;;;4994306;28;20270;-83
2022/10/19 01:52:05;;;;;;;13.17;9.93;;;;;;;;;;4996900;28;20233;-83
2022/10/19 01:54:34;;;;;;;11.17;9.50;;;;;;;;;;4992519;28;20458;-82
2022/10/19 01:57:00;;;;;;;12.57;9.40;;;;;;;;;;4994072;28;20280;-83
2022/10/19 01:59:26;;;;;;;12.10;10.20;;;;;;;;;;4992629;28;20183;-83
2022/10/19 02:01:52;;;;;;;13.57;9.57;;;;;;;;;;4997543;28;20807;-82
2022/10/19 02:04:18;;;;;;;12.27;9.87;;;;;;;;;;4989269;28;20279;-83
2022/10/19 02:06:43;;;;;;;12.90;8.90;;;;;;;;;;4990356;28;20192;-82
2022/10/19 02:09:09;;;;;;;11.63;8.70;;;;;;;;;;4992922;28;20191;-82
2022/10/19 02:11:36;;;;;;;11.00;7.10;;;;;;;;;;4996620;28;20185;-82
2022/10/19 02:14:04;;;;;;;18.40;8.43;;;;;;;;;;4987720;28;20486;-82
2022/10/19 02:16:43;;;;;;;12.00;8.00;;;;;;;;;;4990612;28;20367;-83
2022/10/19 02:19:10;;;;;;;8.70;7.10;;;;;;;;;;4990742;28;20271;-82
2022/10/19 02:21:35;;;;;;;10.43;8.20;;;;;;;;;;4999763;28;20187;-82
2022/10/19 02:24:00;;;;;;;8.73;7.80;;;;;;;;;;4993209;28;20195;-83
2022/10/19 02:26:25;;;;;;;11.17;8.10;;;;;;;;;;4990664;28;20203;-81
2022/10/19 02:28:52;;;;;;;10.70;7.47;;;;;;;;;;4992403;28;20187;-83
2022/10/19 02:31:17;;;;;;;8.67;6.80;;;;;;;;;;5003705;28;20183;-83
2022/10/19 02:33:43;;;;;;;7.40;6.60;;;;;;;;;;4986085;28;20179;-82
2022/10/19 02:36:08;;;;;;;10.07;7.53;;;;;;;;;;4987262;28;20290;-82
2022/10/19 02:38:33;;;;;;;9.27;5.70;;;;;;;;;;4990293;28;20238;-82
2022/10/19 02:41:20;;;;;;;7.53;5.90;;;;;;;;;;4993301;28;20176;-82
2022/10/19 02:43:51;;;;;;;6.83;5.57;;;;;;;;;;4992020;28;20180;-82
2022/10/19 02:46:33;;;;;;;7.00;5.40;;;;;;;;;;4990695;28;20199;-82
2022/10/19 02:49:00;;;;;;;13.53;5.40;;;;;;;;;;4987448;28;20270;-81
2022/10/19 02:51:36;;;;;;;6.43;5.50;;;;;;;;;;4993574;28;20188;-82
2022/10/19 02:54:02;;;;;;;7.03;6.33;;;;;;;;;;4990218;28;20184;-82
2022/10/19 02:56:27;;;;;;;9.53;7.07;;;;;;;;;;4989989;28;20211;-83
2022/10/19 02:58:52;;;;;;;7.23;6.63;;;;;;;;;;4990484;28;20177;-82
2022/10/19 03:01:18;;;;;;;8.00;7.20;;;;;;;;;;4989231;28;20201;-82
2022/10/19 03:03:43;;;;;;;10.40;6.67;;;;;;;;;;5005170;28;20261;-83
2022/10/19 03:06:08;;;;;;;7.83;6.50;;;;;;;;;;4989212;28;20178;-82
2022/10/19 03:08:34;;;;;;;12.23;7.13;;;;;;;;;;4990642;28;20179;-82
2022/10/19 03:10:59;;;;;;;13.53;9.40;;;;;;;;;;4985574;28;20184;-83
2022/10/19 03:13:24;;;;;;;11.60;7.50;;;;;;;;;;5005321;28;20309;-81
2022/10/19 03:15:50;;;;;;;12.07;8.57;;;;;;;;;;4988330;28;20218;-83
2022/10/19 03:18:15;;;;;;;19.33;10.13;;;;;;;;;;4984308;28;20185;-83
2022/10/19 03:20:40;;;;;;;41.97;10.47;;;;;;;;;;4989875;28;20180;-81
2022/10/19 03:23:05;;;;;;;15.30;9.83;;;;;;;;;;4991855;28;20242;-80
2022/10/19 03:25:31;;;;;;;48.97;11.17;;;;;;;;;;4985480;28;20197;-82
2022/10/19 03:27:56;;;;;;;22.23;9.87;;;;;;;;;;4985707;28;20172;-83
2022/10/19 03:30:21;;;;;;;25.70;10.00;;;;;;;;;;4985682;28;20182;-82
2022/10/19 03:32:46;;;;;;;52.03;11.33;;;;;;;;;;4988414;28;20189;-80
2022/10/19 03:35:12;;;;;;;24.97;12.20;;;;;;;;;;4991350;28;20176;-83
2022/10/19 03:37:37;;;;;;;19.53;9.57;;;;;;;;;;4990284;28;20211;-82
2022/10/19 03:40:02;;;;;;;18.37;11.00;;;;;;;;;;4987098;28;20181;-82
2022/10/19 03:42:28;;;;;;;14.23;10.13;;;;;;;;;;4987102;28;20177;-82
2022/10/19 03:44:53;;;;;;;14.10;10.17;;;;;;;;;;4990503;28;20183;-83
2022/10/19 03:47:18;;;;;;;15.30;10.90;;;;;;;;;;4989767;28;20185;-82
2022/10/19 03:49:43;;;;;;;15.03;12.43;;;;;;;;;;4993573;28;20184;-82
2022/10/19 03:52:08;;;;;;;18.13;12.97;;;;;;;;;;4986674;28;20184;-83
2022/10/19 03:54:34;;;;;;;15.57;11.50;;;;;;;;;;4989657;28;20185;-82
2022/10/19 03:56:59;;;;;;;17.63;12.73;;;;;;;;;;4987163;28;20215;-83
2022/10/19 03:59:24;;;;;;;14.43;11.13;;;;;;;;;;4989862;28;20667;-83
2022/10/19 04:01:49;;;;;;;15.97;12.37;;;;;;;;;;4985585;28;20183;-82
2022/10/19 04:04:16;;;;;;;17.23;11.93;;;;;;;;;;4989209;28;20231;-83
2022/10/19 04:06:43;;;;;;;16.20;11.80;;;;;;;;;;4985815;28;20244;-82
2022/10/19 04:09:10;;;;;;;16.20;12.57;;;;;;;;;;4989750;28;20188;-82
2022/10/19 04:11:38;;;;;;;15.53;12.80;;;;;;;;;;4988836;28;20187;-83
2022/10/19 04:14:04;;;;;;;17.83;13.13;;;;;;;;;;4987707;28;20579;-80
2022/10/19 04:16:30;;;;;;;18.47;12.60;;;;;;;;;;4985952;28;20291;-83
2022/10/19 04:18:55;;;;;;;21.23;13.43;;;;;;;;;;4987381;28;20176;-83
2022/10/19 04:21:28;;;;;;;19.73;13.93;;;;;;;;;;4985426;28;20201;-83
2022/10/19 04:23:57;;;;;;;19.17;12.83;;;;;;;;;;4986769;28;20182;-83
2022/10/19 04:26:22;;;;;;;19.00;11.83;;;;;;;;;;4991038;28;20190;-83
2022/10/19 04:28:47;;;;;;;18.00;12.50;;;;;;;;;;4987871;28;20311;-83
2022/10/19 04:31:13;;;;;;;23.23;16.37;;;;;;;;;;4979719;28;20303;-82
2022/10/19 04:33:39;;;;;;;20.60;13.90;;;;;;;;;;4980360;28;20206;-83
2022/10/19 04:36:05;;;;;;;17.23;12.27;;;;;;;;;;4987472;28;20208;-83
2022/10/19 04:38:30;;;;;;;20.17;14.80;;;;;;;;;;4990236;28;20263;-82
2022/10/19 04:41:00;;;;;;;18.50;12.97;;;;;;;;;;4991318;28;20291;-80
2022/10/19 04:43:25;;;;;;;20.20;14.70;;;;;;;;;;4989515;28;20184;-81
2022/10/19 04:45:50;;;;;;;19.30;13.87;;;;;;;;;;4998381;28;20184;-82
2022/10/19 04:48:16;;;;;;;21.50;15.87;;;;;;;;;;4983549;28;20185;-83
2022/10/19 04:50:41;;;;;;;21.20;15.33;;;;;;;;;;4990649;28;20182;-81
2022/10/19 04:53:07;;;;;;;17.70;12.07;;;;;;;;;;5000799;28;20272;-83
2022/10/19 04:55:32;;;;;;;16.93;13.20;;;;;;;;;;4988089;28;20185;-80
2022/10/19 04:57:57;;;;;;;19.53;12.87;;;;;;;;;;4987861;28;20211;-80
2022/10/19 05:18:40;;;;;;;17.43;11.77;;;;;;;;;;5005381;28;20202;-80
2022/10/19 05:21:07;;;;;;;19.80;12.07;;;;;;;;;;4989299;28;20223;-80
2022/10/19 05:23:32;;;;;;;16.50;12.90;;;;;;;;;;4995518;28;20207;-80
2022/10/19 05:25:59;;;;;;;15.60;11.70;;;;;;;;;;4997039;28;20207;-80
2022/10/19 05:28:24;;;;;;;19.30;12.57;;;;;;;;;;4995887;28;20178;-80
2022/10/19 05:30:49;;;;;;;18.03;12.57;;;;;;;;;;4995907;28;20242;-80
2022/10/19 05:33:15;;;;;;;17.63;11.20;;;;;;;;;;4996834;28;20214;-80
2022/10/19 05:35:40;;;;;;;20.37;13.27;;;;;;;;;;4995908;28;20263;-80
2022/10/19 05:38:05;;;;;;;17.67;12.73;;;;;;;;;;4990563;28;20177;-80
2022/10/19 05:40:30;;;;;;;20.37;12.60;;;;;;;;;;4995796;28;20274;-80
2022/10/19 05:42:55;;;;;;;16.07;10.60;;;;;;;;;;4992205;28;20208;-80
2022/10/19 05:45:21;;;;;;;20.57;12.07;;;;;;;;;;5007964;28;20208;-80
2022/10/19 05:47:46;;;;;;;25.97;13.20;;;;;;;;;;4999706;28;20262;-80
2022/10/19 05:50:11;;;;;;;30.30;12.17;;;;;;;;;;4992642;28;20187;-80
2022/10/19 05:52:36;;;;;;;20.30;12.10;;;;;;;;;;4990102;28;20195;-80
2022/10/19 05:55:02;;;;;;;16.17;11.17;;;;;;;;;;4990347;28;20191;-80
2022/10/19 05:57:27;;;;;;;18.83;10.67;;;;;;;;;;4992533;28;20212;-80
2022/10/19 05:59:55;;;;;;;21.87;10.33;;;;;;;;;;4988682;28;20188;-80
2022/10/19 06:02:20;;;;;;;21.27;10.67;;;;;;;;;;4991929;28;20196;-80
2022/10/19 06:04:45;;;;;;;20.53;10.77;;;;;;;;;;4990749;28;20201;-80
2022/10/19 06:07:11;;;;;;;21.00;12.03;;;;;;;;;;4994850;28;20192;-80
2022/10/19 06:09:36;;;;;;;22.97;11.37;;;;;;;;;;4991386;28;20196;-80
2022/10/19 06:12:02;;;;;;;25.50;12.53;;;;;;;;;;4989025;28;20197;-80
2022/10/19 06:14:27;;;;;;;36.33;12.67;;;;;;;;;;4995005;28;20186;-80
2022/10/19 06:16:52;;;;;;;27.07;13.63;;;;;;;;;;4994567;28;20211;-80
2022/10/19 06:19:18;;;;;;;16.27;11.33;;;;;;;;;;4991707;28;20211;-80
2022/10/19 06:21:44;;;;;;;20.23;11.93;;;;;;;;;;4983399;28;20191;-80
2022/10/19 06:24:09;;;;;;;18.73;11.13;;;;;;;;;;4994502;28;20195;-80
2022/10/19 06:26:34;;;;;;;15.97;11.20;;;;;;;;;;4994689;28;20182;-80
2022/10/19 06:29:00;;;;;;;18.83;12.70;;;;;;;;;;5004379;28;20183;-81
2022/10/19 06:31:29;;;;;;;21.97;13.80;;;;;;;;;;4994206;28;20283;-80
2022/10/19 06:33:55;;;;;;;18.00;13.03;;;;;;;;;;4992358;28;20173;-80
2022/10/19 06:36:21;;;;;;;22.13;15.70;;;;;;;;;;4994740;28;20213;-80
2022/10/19 06:38:46;;;;;;;20.10;13.57;;;;;;;;;;5003450;28;20182;-80
2022/10/19 06:41:12;;;;;;;16.03;11.13;;;;;;;;;;4995596;28;20169;-81
2022/10/19 06:43:37;;;;;;;16.30;12.80;;;;;;;;;;4996358;28;20178;-80
2022/10/19 06:46:04;;;;;;;18.37;12.60;;;;;;;;;;5002467;28;20194;-80
2022/10/19 06:48:29;;;;;;;17.43;12.30;;;;;;;;;;5000883;28;20188;-80
2022/10/19 06:50:55;;;;;;;15.97;12.40;;;;;;;;;;4995984;28;20267;-80
2022/10/19 06:53:21;;;;;;;16.47;12.10;;;;;;;;;;5000517;28;20274;-81
2022/10/19 06:55:46;;;;;;;15.70;12.57;;;;;;;;;;5002684;28;20240;-80
2022/10/19 06:58:11;;;;;;;15.00;11.47;;;;;;;;;;5001715;28;20186;-80
2022/10/19 07:00:36;;;;;;;16.67;11.37;;;;;;;;;;5000295;28;20208;-80
2022/10/19 07:03:01;;;;;;;16.10;11.83;;;;;;;;;;4995654;28;20226;-80
2022/10/19 07:05:27;;;;;;;16.20;13.20;;;;;;;;;;5012196;28;20178;-80
2022/10/19 07:07:52;;;;;;;12.43;11.03;;;;;;;;;;5000262;28;20178;-80
2022/10/19 07:10:17;;;;;;;13.80;11.50;;;;;;;;;;4996561;28;20183;-80
2022/10/19 07:12:42;;;;;;;12.50;10.20;;;;;;;;;;5016479;28;20183;-80
2022/10/19 07:15:08;;;;;;;14.37;11.20;;;;;;;;;;4999787;28;20178;-80
2022/10/19 07:17:33;;;;;;;16.87;12.27;;;;;;;;;;4995750;28;20191;-80
2022/10/19 07:19:58;;;;;;;13.97;11.60;;;;;;;;;;5001875;28;20219;-80
2022/10/19 07:22:24;;;;;;;16.07;11.40;;;;;;;;;;5000238;28;20176;-81
2022/10/19 07:24:49;;;;;;;17.73;12.90;;;;;;;;;;4996588;28;20180;-81
2022/10/19 07:27:14;;;;;;;15.70;12.70;;;;;;;;;;4992730;28;20176;-80
2022/10/19 07:29:40;;;;;;;16.43;13.07;;;;;;;;;;4995928;28;20262;-81
2022/10/19 07:32:05;;;;;;;14.77;12.00;;;;;;;;;;4992395;28;20199;-80
2022/10/19 07:34:30;;;;;;;14.60;11.23;;;;;;;;;;5004125;28;20189;-81
2022/10/19 07:36:55;;;;;;;16.00;11.20;;;;;;;;;;4995333;28;20271;-81
2022/10/19 07:39:21;;;;;;;13.67;11.63;;;;;;;;;;4993706;28;20184;-81
2022/10/19 07:41:46;;;;;;;16.03;11.77;;;;;;;;;;4995794;28;20227;-81
2022/10/19 07:44:11;;;;;;;12.90;10.20;;;;;;;;;;4989516;28;20277;-80
2022/10/19 07:46:37;;;;;;;14.73;10.67;;;;;;;;;;4996295;28;20197;-81
2022/10/19 07:49:04;;;;;;;14.87;11.67;;;;;;;;;;4991147;28;20176;-81
2022/10/19 07:51:30;;;;;;;14.23;11.27;;;;;;;;;;5000619;28;20184;-81
2022/10/19 07:53:56;;;;;;;12.90;11.37;;;;;;;;;;4990436;28;20206;-81
2022/10/19 07:56:22;;;;;;;15.07;11.77;;;;;;;;;;4995271;28;20215;-81
2022/10/19 07:58:52;;;;;;;17.30;11.90;;;;;;;;;;4991089;28;20299;-81
2022/10/19 08:01:21;;;;;;;17.37;11.97;;;;;;;;;;4998455;28;20210;-81
2022/10/19 08:03:47;;;;;;;17.43;12.77;;;;;;;;;;4990117;28;20230;-80
2022/10/19 08:06:15;;;;;;;17.53;13.73;;;;;;;;;;4991432;28;20243;-80
2022/10/19 08:08:40;;;;;;;15.57;11.73;;;;;;;;;;4999298;28;20181;-80
2022/10/19 08:11:07;;;;;;;17.43;11.97;;;;;;;;;;5001040;28;20187;-81
2022/10/19 08:13:32;;;;;;;20.57;13.90;;;;;;;;;;4992174;28;20245;-81
2022/10/19 08:15:57;;;;;;;17.43;13.17;;;;;;;;;;5002412;28;20204;-80
2022/10/19 08:18:22;;;;;;;18.53;14.17;;;;;;;;;;4992345;28;20207;-81
2022/10/19 08:20:48;;;;;;;19.67;13.77;;;;;;;;;;4993594;28;20224;-80
2022/10/19 08:23:14;;;;;;;17.57;12.53;;;;;;;;;;4987896;28;20284;-81
2022/10/19 08:25:39;;;;;;;16.90;12.13;;;;;;;;;;4990007;28;20230;-81
2022/10/19 08:28:04;;;;;;;16.57;11.70;;;;;;;;;;4994302;28;20214;-80
2022/10/19 08:30:29;;;;;;;14.73;11.07;;;;;;;;;;4991616;28;20175;-80
2022/10/19 08:32:55;;;;;;;17.53;12.37;;;;;;;;;;4995092;28;20203;-80
2022/10/19 08:35:20;;;;;;;18.50;12.27;;;;;;;;;;4995130;28;20180;-80
2022/10/19 08:37:45;;;;;;;17.40;12.53;;;;;;;;;;4994081;28;20238;-81
2022/10/19 08:40:19;;;;;;;16.53;12.07;;;;;;;;;;4993224;28;20241;-81
2022/10/19 08:42:53;;;;;;;17.33;12.67;;;;;;;;;;4990223;28;20182;-81
2022/10/19 08:45:22;;;;;;;18.10;12.00;;;;;;;;;;4990739;28;20208;-81
2022/10/19 08:47:54;;;;;;;23.27;20.97;;;;;;;;;;4990123;28;20173;-80
2022/10/19 08:50:21;;;;;;;14.67;10.83;;;;;;;;;;4991991;28;20279;-81
2022/10/19 08:52:50;;;;;;;14.57;10.57;;;;;;;;;;4996118;28;20181;-81
2022/10/19 08:55:18;;;;;;;14.20;10.73;;;;;;;;;;4994766;28;20194;-81
2022/10/19 08:58:07;;;;;;;15.20;10.87;;;;;;;;;;4995306;28;20200;-81
2022/10/19 09:00:32;;;;;;;13.77;10.20;;;;;;;;;;4989196;28;20181;-81
2022/10/19 09:03:00;;;;;;;14.33;10.10;;;;;;;;;;5005120;28;20317;-81
2022/10/19 09:05:38;;;;;;;12.77;9.60;;;;;;;;;;4993629;28;20190;-81
2022/10/19 09:08:03;;;;;;;21.13;10.40;;;;;;;;;;4993742;28;20187;-81
2022/10/19 09:10:31;;;;;;;14.67;10.73;;;;;;;;;;4998991;28;20177;-81
2022/10/19 09:12:58;;;;;;;15.57;10.23;;;;;;;;;;4993332;28;20180;-81
2022/10/19 09:15:26;;;;;;;14.07;10.33;;;;;;;;;;5004233;28;20205;-81
2022/10/19 09:17:51;;;;;;;14.20;11.10;;;;;;;;;;4991396;28;20201;-81
2022/10/19 09:20:18;;;;;;;15.30;11.37;;;;;;;;;;5000365;28;20219;-81
2022/10/19 09:22:44;;;;;;;17.33;11.23;;;;;;;;;;4992119;28;20195;-80
2022/10/19 09:25:17;;;;;;;15.73;12.30;;;;;;;;;;4993396;28;20178;-80
2022/10/19 09:27:45;;;;;;;16.93;11.83;;;;;;;;;;4984981;28;20186;-81
2022/10/19 09:30:13;;;;;;;14.13;11.13;;;;;;;;;;4998548;28;20193;-80
2022/10/19 09:32:38;;;;;;;16.20;12.43;;;;;;;;;;4997458;28;20225;-80
2022/10/19 09:35:23;;;;;;;14.73;10.90;;;;;;;;;;4992164;28;20249;-81
2022/10/19 09:37:50;;;;;;;21.17;12.90;;;;;;;;;;4996631;28;20215;-80
2022/10/19 09:40:23;;;;;;;19.30;13.50;;;;;;;;;;4987187;28;20182;-81
2022/10/19 09:42:55;;;;;;;14.00;10.97;;;;;;;;;;4992798;28;20176;-81
2022/10/19 09:45:24;;;;;;;15.83;11.30;;;;;;;;;;4992686;28;20177;-81
2022/10/19 09:47:49;;;;;;;13.57;10.43;;;;;;;;;;5004078;28;20185;-81
2022/10/19 09:50:17;;;;;;;24.60;22.10;;;;;;;;;;4993650;28;20265;-81
2022/10/19 09:52:44;;;;;;;20.53;13.80;;;;;;;;;;4990265;28;20231;-81
2022/10/19 09:55:12;;;;;;;16.73;11.83;;;;;;;;;;4992161;28;20206;-81
2022/10/19 09:58:01;;;;;;;21.53;13.73;;;;;;;;;;4990697;28;20209;-81
2022/10/19 10:00:34;;;;;;;15.40;11.17;;;;;;;;;;4987066;28;20193;-81
2022/10/19 10:02:59;;;;;;;15.80;11.50;;;;;;;;;;5003063;28;20175;-81
2022/10/19 10:05:35;;;;;;;14.83;10.77;;;;;;;;;;4975450;28;20178;-81
2022/10/19 10:08:01;;;;;;;17.60;12.40;;;;;;;;;;4998180;28;20493;-81
2022/10/19 10:10:28;;;;;;;20.67;13.70;;;;;;;;;;4993024;28;20271;-81
2022/10/19 10:12:53;;;;;;;18.53;14.37;;;;;;;;;;4998949;28;20188;-81
2022/10/19 10:15:25;;;;;;;17.93;13.33;;;;;;;;;;5000325;28;20180;-81
2022/10/19 10:17:51;;;;;;;16.73;11.37;;;;;;;;;;4993847;28;20211;-81
2022/10/19 10:20:35;;;;;;;17.83;11.93;;;;;;;;;;4999485;28;20250;-80
2022/10/19 10:23:02;;;;;;;18.37;13.80;;;;;;;;;;4996971;28;20408;-81
2022/10/19 10:25:36;;;;;;;15.40;12.53;;;;;;;;;;4993030;28;20260;-81
2022/10/19 10:28:21;;;;;;;18.93;13.30;;;;;;;;;;4996376;28;20211;-81
2022/10/19 10:30:47;;;;;;;17.10;12.90;;;;;;;;;;4990442;28;20282;-81
2022/10/19 10:33:18;;;;;;;16.17;11.50;;;;;;;;;;4994164;28;20173;-81
2022/10/19 10:35:52;;;;;;;14.53;11.10;;;;;;;;;;4993421;28;20206;-81
2022/10/19 10:38:20;;;;;;;15.07;10.13;;;;;;;;;;4995523;28;20213;-81
2022/10/19 10:40:56;;;;;;;16.73;11.40;;;;;;;;;;5003205;28;20197;-81
2022/10/19 10:43:26;;;;;;;13.73;10.97;;;;;;;;;;4987857;28;20182;-81
2022/10/19 10:45:52;;;;;;;13.57;10.97;;;;;;;;;;4992672;28;20178;-81
2022/10/19 10:48:29;;;;;;;13.07;11.20;;;;;;;;;;4994978;28;20174;-81
2022/10/19 10:50:55;;;;;;;14.70;11.60;;;;;;;;;;4996145;28;20271;-81
2022/10/19 10:53:31;;;;;;;14.97;12.33;;;;;;;;;;4994546;28;20208;-81
2022/10/19 10:55:56;;;;;;;14.97;10.37;;;;;;;;;;4996192;28;20177;-81
2022/10/19 10:58:42;;;;;;;14.10;11.47;;;;;;;;;;4994194;28;20189;-81
2022/10/19 11:01:15;;;;;;;15.87;13.23;;;;;;;;;;5001860;28;20179;-81
2022/10/19 11:03:43;;;;;;;16.60;11.97;;;;;;;;;;5001810;28;20193;-81
2022/10/19 11:06:08;;;;;;;19.27;11.67;;;;;;;;;;4995895;28;20194;-81
2022/10/19 11:08:43;;;;;;;12.40;9.97;;;;;;;;;;5004242;28;20308;-81
2022/10/19 11:11:17;;;;;;;16.93;12.97;;;;;;;;;;4992905;28;20182;-81
2022/10/19 11:13:51;;;;;;;16.80;11.67;;;;;;;;;;4992900;28;20182;-81
2022/10/19 11:16:17;;;;;;;15.43;10.97;;;;;;;;;;4987006;28;20305;-81
2022/10/19 11:18:49;;;;;;;13.17;11.77;;;;;;;;;;4991837;28;20177;-81
2022/10/19 11:21:25;;;;;;;15.53;11.63;;;;;;;;;;4993603;28;20278;-81
2022/10/19 11:23:59;;;;;;;14.63;11.13;;;;;;;;;;4991931;28;20174;-81
2022/10/19 11:26:27;;;;;;;12.87;10.47;;;;;;;;;;4991708;28;20198;-81
2022/10/19 11:29:02;;;;;;;15.40;10.93;;;;;;;;;;4990575;28;20276;-81
2022/10/19 11:31:34;;;;;;;12.33;10.10;;;;;;;;;;4991035;28;20208;-81
2022/10/19 11:33:59;;;;;;;13.80;10.30;;;;;;;;;;4992382;28;20180;-81
2022/10/19 11:36:24;;;;;;;11.80;10.53;;;;;;;;;;4993044;28;20228;-81
2022/10/19 11:38:49;;;;;;;17.40;11.03;;;;;;;;;;4997268;28;20242;-81
2022/10/19 11:41:17;;;;;;;13.13;10.93;;;;;;;;;;4989531;28;20171;-81
2022/10/19 11:44:02;;;;;;;13.53;11.90;;;;;;;;;;4991283;28;20175;-81
2022/10/19 11:46:34;;;;;;;15.47;11.27;;;;;;;;;;4993227;28;20227;-82
2022/10/19 11:49:18;;;;;;;13.53;10.57;;;;;;;;;;4991950;28;20266;-81
2022/10/19 11:51:52;;;;;;;13.03;10.87;;;;;;;;;;4992927;28;20194;-81
2022/10/19 11:54:20;;;;;;;14.10;11.23;;;;;;;;;;4995103;28;20221;-81
2022/10/19 11:56:49;;;;;;;14.33;10.83;;;;;;;;;;4987558;28;20211;-81
2022/10/19 11:59:34;;;;;;;14.97;11.70;;;;;;;;;;4974610;28;20206;-81
2022/10/19 12:01:59;;;;;;;12.07;10.73;;;;;;;;;;4995303;28;20269;-81
2022/10/19 12:04:28;;;;;;;12.93;11.20;;;;;;;;;;4994740;28;20228;-81
2022/10/19 12:07:05;;;;;;;15.47;13.43;;;;;;;;;;5000268;28;20194;-81
2022/10/19 12:09:56;;;;;;;16.43;13.07;;;;;;;;;;4995644;28;20211;-81
2022/10/19 12:12:24;;;;;;;14.80;12.20;;;;;;;;;;4987860;28;20199;-81
2022/10/19 12:15:12;;;;;;;14.97;13.03;;;;;;;;;;4994600;28;20209;-81
2022/10/19 12:17:39;;;;;;;19.13;16.43;;;;;;;;;;4974129;28;20248;-81
2022/10/19 12:20:15;;;;;;;18.50;14.73;;;;;;;;;;4998739;28;20257;-81
2022/10/19 12:22:42;;;;;;;17.47;15.17;;;;;;;;;;4988080;28;20239;-81
2022/10/19 12:25:11;;;;;;;22.47;15.90;;;;;;;;;;4983369;28;20185;-82
2022/10/19 12:27:37;;;;;;;15.43;13.47;;;;;;;;;;4988998;28;20191;-89
2022/10/19 12:30:29;;;;;;;16.67;14.43;;;;;;;;;;4990974;28;20201;-88
2022/10/19 12:32:59;;;;;;;17.20;14.40;;;;;;;;;;4983932;28;20187;-88
2022/10/19 12:35:24;;;;;;;15.97;12.97;;;;;;;;;;4994331;28;20180;-87
2022/10/19 12:37:57;;;;;;;14.43;12.70;;;;;;;;;;4989815;28;20221;-88
2022/10/19 12:40:34;;;;;;;13.10;11.70;;;;;;;;;;4999695;28;20215;-87
2022/10/19 12:43:23;;;;;;;14.20;11.17;;;;;;;;;;4989686;28;20187;-87
2022/10/19 12:46:08;;;;;;;13.93;11.33;;;;;;;;;;4979108;28;20187;-88
2022/10/19 12:48:36;;;;;;;10.73;9.73;;;;;;;;;;4981655;28;20197;-85
2022/10/19 12:51:02;;;;;;;12.23;9.30;;;;;;;;;;5007927;28;20189;-87
2022/10/19 12:53:29;;;;;;;10.87;8.20;;;;;;;;;;4993815;28;20176;-89
2022/10/19 12:56:13;;;;;;;8.40;7.60;;;;;;;;;;4992716;28;20210;-89
2022/10/19 12:58:39;;;;;;;7.87;7.10;;;;;;;;;;4992074;28;20177;-87
2022/10/19 13:01:05;;;;;;;8.07;7.27;;;;;;;;;;5000640;28;20242;-86
2022/10/19 13:03:32;;;;;;;7.43;6.73;;;;;;;;;;5001190;28;20224;-86
2022/10/19 13:05:59;;;;;;;7.37;6.20;;;;;;;;;;4986192;28;20186;-83
2022/10/19 13:08:36;;;;;;;7.07;6.13;;;;;;;;;;4993895;28;20186;-87
2022/10/19 13:11:02;;;;;;;5.77;5.27;;;;;;;;;;4996344;28;20183;-90
2022/10/19 13:13:52;;;;;;;7.90;6.40;;;;;;;;;;4991205;28;20264;-91
2022/10/19 13:16:35;;;;;;;6.43;5.37;;;;;;;;;;4984571;28;20210;-89
2022/10/19 13:19:00;;;;;;;5.80;5.07;;;;;;;;;;4984585;28;20239;-85
2022/10/19 13:21:44;;;;;;;5.83;5.23;;;;;;;;;;4985337;28;20229;-88
2022/10/19 13:24:25;;;;;;;5.50;5.00;;;;;;;;;;4987052;28;20182;-86
2022/10/19 13:27:16;;;;;;;6.33;4.70;;;;;;;;;;5004032;28;20201;-90
2022/10/19 13:29:43;;;;;;;4.27;3.87;;;;;;;;;;4977146;28;20185;-87
2022/10/19 13:32:27;;;;;;;4.80;4.40;;;;;;;;;;4987357;28;20212;-89
2022/10/19 13:34:52;;;;;;;5.17;4.67;;;;;;;;;;4990622;28;20198;-90
2022/10/19 13:37:18;;;;;;;5.57;4.33;;;;;;;;;;4987519;28;20205;-90
2022/10/19 13:39:43;;;;;;;9.90;4.97;;;;;;;;;;5002680;28;20191;-89
2022/10/19 13:42:22;;;;;;;6.73;4.57;;;;;;;;;;4983770;28;20170;-85
2022/10/19 13:44:48;;;;;;;7.03;5.10;;;;;;;;;;4987108;28;20178;-88
2022/10/19 13:47:13;;;;;;;6.17;4.30;;;;;;;;;;4987719;28;20188;-87
2022/10/19 13:49:46;;;;;;;6.40;4.50;;;;;;;;;;4984220;28;20186;-89
2022/10/19 13:52:30;;;;;;;4.83;4.40;;;;;;;;;;4983923;28;20183;-91
2022/10/19 13:55:13;;;;;;;6.03;5.37;;;;;;;;;;5001027;28;20371;-90
2022/10/19 13:57:45;;;;;;;5.10;4.60;;;;;;;;;;4989333;28;20240;-89
2022/10/19 14:00:10;;;;;;;4.90;4.13;;;;;;;;;;4986219;28;20191;-89
2022/10/19 14:02:38;;;;;;;5.80;4.90;;;;;;;;;;4986886;28;20174;-90
2022/10/19 14:05:06;;;;;;;4.93;4.50;;;;;;;;;;4988571;28;20296;-86
2022/10/19 14:07:38;;;;;;;4.93;4.43;;;;;;;;;;4989975;28;20173;-88
2022/10/19 14:10:19;;;;;;;4.90;4.50;;;;;;;;;;4989454;28;20186;-90
2022/10/19 14:12:45;;;;;;;4.97;4.47;;;;;;;;;;4982853;28;20277;-88
2022/10/19 14:15:21;;;;;;;5.00;4.50;;;;;;;;;;4985025;28;20177;-89
2022/10/19 14:17:46;;;;;;;5.83;5.33;;;;;;;;;;5000395;28;20224;-88
2022/10/19 14:20:30;;;;;;;5.83;5.33;;;;;;;;;;4985219;28;20250;-89
2022/10/19 14:22:56;;;;;;;6.43;5.83;;;;;;;;;;4966668;28;20247;-89
2022/10/19 14:25:26;;;;;;;7.10;5.87;;;;;;;;;;4972846;28;20183;-89
2022/10/19 14:27:59;;;;;;;14.37;6.93;;;;;;;;;;4977359;28;20183;-86
2022/10/19 14:30:27;;;;;;;8.23;5.77;;;;;;;;;;4969356;28;20182;-89
2022/10/19 14:32:52;;;;;;;6.57;5.40;;;;;;;;;;4985979;28;20187;-89
2022/10/19 14:35:23;;;;;;;5.97;5.37;;;;;;;;;;4970772;28;20269;-89
2022/10/19 14:37:49;;;;;;;7.17;6.47;;;;;;;;;;4983928;28;20211;-88
2022/10/19 14:40:20;;;;;;;6.37;5.77;;;;;;;;;;4971756;28;20185;-89
2022/10/19 14:42:46;;;;;;;7.27;5.20;;;;;;;;;;4971348;28;20232;-89
2022/10/19 14:45:13;;;;;;;13.60;6.23;;;;;;;;;;4967853;28;20177;-86
2022/10/19 14:47:50;;;;;;;6.00;5.40;;;;;;;;;;4972733;28;20210;-88
2022/10/19 14:50:15;;;;;;;6.23;5.20;;;;;;;;;;4976766;28;20187;-87
2022/10/19 14:52:40;;;;;;;8.43;5.83;;;;;;;;;;4988315;28;20189;-90
2022/10/19 14:55:16;;;;;;;7.17;6.47;;;;;;;;;;4990060;28;20178;-85